createdAt,value
2024-04-17T00:02:05.831Z,8.14
2024-04-17T00:04:32.744Z,8.07
2024-04-17T00:06:59.486Z,8.05
2024-04-17T00:09:26.253Z,8.00
2024-04-17T00:11:52.993Z,8.00
2024-04-17T00:14:19.768Z,8.00
2024-04-17T00:16:46.515Z,8.00
2024-04-17T00:19:13.518Z,7.99
2024-04-17T00:21:40.211Z,7.93
2024-04-17T00:24:07.034Z,7.93
2024-04-17T00:26:33.717Z,7.91
2024-04-17T00:29:00.504Z,7.89
2024-04-17T00:31:27.233Z,7.90
2024-04-17T00:33:53.938Z,7.93
2024-04-17T00:36:20.594Z,7.94
2024-04-17T00:38:47.239Z,7.98
2024-04-17T00:41:13.916Z,8.00
2024-04-17T00:43:40.623Z,8.02
2024-04-17T00:46:12.268Z,7.94
2024-04-17T00:48:39.089Z,7.91
2024-04-17T00:51:06.137Z,7.90
2024-04-17T00:53:34.549Z,7.87
2024-04-17T00:56:01.963Z,7.77
2024-04-17T00:58:29.572Z,7.68
2024-04-17T01:00:56.515Z,7.64
2024-04-17T01:03:23.414Z,7.51
2024-04-17T01:05:50.172Z,7.53
2024-04-17T01:08:17.280Z,7.54
2024-04-17T01:10:44.132Z,7.51
2024-04-17T01:13:11.010Z,7.56
2024-04-17T01:15:37.952Z,7.60
2024-04-17T01:18:06.417Z,7.62
2024-04-17T01:20:33.518Z,7.64
2024-04-17T01:23:00.321Z,7.57
2024-04-17T01:25:27.115Z,7.45
2024-04-17T01:27:53.788Z,7.49
2024-04-17T01:30:20.430Z,7.51
2024-04-17T01:32:47.217Z,7.58
2024-04-17T01:35:14.096Z,7.59
2024-04-17T01:37:40.815Z,7.62
2024-04-17T01:40:08.042Z,7.63
2024-04-17T01:42:34.751Z,7.67
2024-04-17T01:45:01.414Z,7.71
2024-04-17T01:47:28.218Z,7.74
2024-04-17T01:49:54.965Z,7.76
2024-04-17T01:52:21.709Z,7.78
2024-04-17T01:54:48.410Z,7.78
2024-04-17T01:57:15.036Z,7.49
2024-04-17T01:59:41.722Z,7.30
2024-04-17T02:02:09.361Z,7.11
2024-04-17T02:04:36.016Z,7.14
2024-04-17T02:07:02.921Z,6.94
2024-04-17T02:09:29.590Z,6.94
2024-04-17T02:11:56.260Z,6.83
2024-04-17T02:14:22.953Z,6.73
2024-04-17T02:16:50.997Z,6.69
2024-04-17T02:19:17.816Z,6.68
2024-04-17T02:21:44.504Z,6.63
2024-04-17T02:24:11.501Z,6.65
2024-04-17T02:26:38.277Z,6.67
2024-04-17T02:29:04.938Z,6.56
2024-04-17T02:31:31.624Z,6.63
2024-04-17T02:33:58.288Z,6.76
2024-04-17T02:36:24.956Z,6.88
2024-04-17T02:38:51.630Z,7.00
2024-04-17T02:41:18.384Z,7.06
2024-04-17T02:43:45.065Z,7.09
2024-04-17T02:46:11.797Z,7.16
2024-04-17T02:48:38.788Z,7.10
2024-04-17T02:51:05.733Z,7.12
2024-04-17T02:53:32.399Z,7.10
2024-04-17T02:56:00.783Z,7.10
2024-04-17T02:58:27.532Z,7.08
2024-04-17T03:00:54.787Z,7.12
2024-04-17T03:03:21.571Z,7.14
2024-04-17T03:05:48.277Z,7.14
2024-04-17T03:08:14.944Z,7.13
2024-04-17T03:10:41.636Z,7.21
2024-04-17T03:13:08.446Z,7.30
2024-04-17T03:15:36.396Z,7.31
2024-04-17T03:18:03.179Z,7.30
2024-04-17T03:20:32.434Z,7.35
2024-04-17T03:22:59.146Z,7.24
2024-04-17T03:25:25.970Z,6.80
2024-04-17T03:27:52.691Z,6.94
2024-04-17T03:30:19.410Z,7.02
2024-04-17T03:32:46.258Z,7.07
2024-04-17T03:35:13.117Z,7.11
2024-04-17T03:37:39.906Z,7.11
2024-04-17T03:40:07.206Z,7.14
2024-04-17T03:42:33.923Z,7.20
2024-04-17T03:45:00.658Z,7.22
2024-04-17T03:47:27.480Z,7.24
2024-04-17T03:49:55.128Z,7.14
2024-04-17T03:52:21.881Z,7.07
2024-04-17T03:54:48.576Z,7.08
2024-04-17T03:57:15.224Z,6.95
2024-04-17T03:59:41.892Z,7.00
2024-04-17T04:02:12.584Z,6.99
2024-04-17T04:04:40.445Z,6.96
2024-04-17T04:07:07.235Z,7.01
2024-04-17T04:09:33.929Z,7.09
2024-04-17T04:12:00.588Z,7.14
2024-04-17T04:14:27.705Z,7.11
2024-04-17T04:16:54.653Z,7.18
2024-04-17T04:19:21.610Z,7.23
2024-04-17T04:21:48.486Z,7.32
2024-04-17T04:24:15.172Z,7.40
2024-04-17T04:26:41.838Z,7.44
2024-04-17T04:29:08.802Z,7.49
2024-04-17T04:31:35.499Z,7.58
2024-04-17T04:34:02.173Z,7.70
2024-04-17T04:36:28.836Z,7.81
2024-04-17T04:38:55.528Z,7.90
2024-04-17T04:41:22.190Z,7.95
2024-04-17T04:43:48.967Z,8.05
2024-04-17T04:46:15.640Z,8.09
2024-04-17T04:48:42.364Z,8.09
2024-04-17T04:51:09.147Z,8.02
2024-04-17T04:53:35.797Z,8.07
2024-04-17T04:56:04.455Z,7.96
2024-04-17T04:58:32.209Z,7.88
2024-04-17T05:00:59.131Z,7.96
2024-04-17T05:03:25.870Z,8.04
2024-04-17T05:05:52.571Z,8.15
2024-04-17T05:08:19.670Z,8.24
2024-04-17T05:10:46.909Z,8.30
2024-04-17T05:13:13.550Z,8.24
2024-04-17T05:15:40.160Z,8.28
2024-04-17T05:18:07.134Z,8.34
2024-04-17T05:20:33.959Z,8.35
2024-04-17T05:23:00.684Z,8.49
2024-04-17T05:25:27.926Z,8.51
2024-04-17T05:27:54.663Z,8.59
2024-04-17T05:30:21.347Z,8.87
2024-04-17T05:32:48.495Z,9.30
2024-04-17T05:35:15.263Z,9.58
2024-04-17T05:37:42.041Z,9.93
2024-04-17T05:40:08.978Z,10.47
2024-04-17T05:42:35.683Z,10.98
2024-04-17T05:45:02.362Z,11.06
2024-04-17T05:47:29.123Z,11.12
2024-04-17T05:49:58.058Z,11.06
2024-04-17T05:52:27.162Z,10.97
2024-04-17T05:54:53.863Z,10.88
2024-04-17T05:57:20.586Z,10.67
2024-04-17T05:59:47.248Z,10.39
2024-04-17T06:02:14.196Z,10.20
2024-04-17T06:04:41.267Z,10.00
2024-04-17T06:07:07.937Z,9.87
2024-04-17T06:09:34.593Z,9.77
2024-04-17T06:12:01.260Z,9.68
2024-04-17T06:14:27.955Z,9.54
2024-04-17T06:16:54.667Z,9.46
2024-04-17T06:19:21.337Z,9.38
2024-04-17T06:21:48.364Z,9.33
2024-04-17T06:24:15.064Z,9.16
2024-04-17T06:26:41.758Z,9.06
2024-04-17T06:29:08.444Z,8.93
2024-04-17T06:31:35.183Z,8.88
2024-04-17T06:34:01.967Z,8.81
2024-04-17T06:36:28.655Z,8.72
2024-04-17T06:38:55.366Z,8.68
2024-04-17T06:41:22.077Z,8.61
2024-04-17T06:43:48.910Z,8.61
2024-04-17T06:46:15.638Z,8.49
2024-04-17T06:48:42.332Z,8.55
2024-04-17T06:51:09.107Z,8.63
2024-04-17T06:53:37.838Z,8.67
2024-04-17T06:56:06.040Z,8.75
2024-04-17T06:58:32.899Z,8.74
2024-04-17T07:00:59.856Z,8.72
2024-04-17T07:03:26.628Z,8.75
2024-04-17T07:06:05.180Z,8.84
2024-04-17T07:08:31.972Z,8.84
2024-04-17T07:10:58.671Z,8.88
2024-04-17T07:13:25.451Z,8.90
2024-04-17T07:15:53.900Z,8.97
2024-04-17T07:18:20.592Z,9.05
2024-04-17T07:20:47.298Z,8.99
2024-04-17T07:23:13.988Z,9.02
2024-04-17T07:25:40.703Z,9.07
2024-04-17T07:28:07.585Z,9.09
2024-04-17T07:30:39.358Z,9.10
2024-04-17T07:33:06.428Z,9.14
2024-04-17T07:35:33.147Z,9.17
2024-04-17T07:37:59.976Z,9.24
2024-04-17T07:40:26.776Z,9.36
2024-04-17T07:42:53.429Z,9.49
2024-04-17T07:45:20.114Z,9.67
2024-04-17T07:47:46.875Z,9.79
2024-04-17T07:50:13.586Z,9.91
2024-04-17T07:52:40.429Z,10.10
2024-04-17T07:55:07.357Z,10.14
2024-04-17T07:57:34.104Z,10.17
2024-04-17T08:00:01.429Z,10.24
2024-04-17T08:02:28.214Z,10.30
2024-04-17T08:04:54.976Z,10.32
2024-04-17T08:07:21.658Z,10.33
2024-04-17T08:09:48.313Z,10.35
2024-04-17T08:12:15.031Z,10.36
2024-04-17T08:14:41.830Z,10.41
2024-04-17T08:17:08.533Z,10.58
2024-04-17T08:19:37.907Z,10.66
2024-04-17T08:22:04.807Z,10.73
2024-04-17T08:24:31.475Z,10.80
2024-04-17T08:26:58.206Z,10.85
2024-04-17T08:29:24.927Z,11.03
2024-04-17T08:31:51.654Z,11.14
2024-04-17T08:34:18.307Z,11.15
2024-04-17T08:36:46.028Z,11.30
2024-04-17T08:39:12.679Z,11.39
2024-04-17T08:41:48.711Z,11.48
2024-04-17T08:44:30.478Z,11.58
2024-04-17T08:46:58.734Z,11.61
2024-04-17T08:49:27.284Z,11.67
2024-04-17T08:51:54.196Z,11.59
2024-04-17T08:54:22.938Z,11.50
2024-04-17T08:56:49.647Z,11.51
2024-04-17T08:59:16.396Z,11.58
2024-04-17T09:01:43.638Z,11.51
2024-04-17T09:04:11.972Z,11.51
2024-04-17T09:06:40.595Z,11.55
2024-04-17T09:09:11.126Z,11.64
2024-04-17T09:11:39.431Z,11.74
2024-04-17T09:14:06.230Z,11.75
2024-04-17T09:16:33.064Z,11.83
2024-04-17T09:19:00.332Z,11.78
2024-04-17T09:21:26.920Z,11.66
2024-04-17T09:23:55.943Z,11.67
2024-04-17T09:26:23.248Z,11.67
2024-04-17T09:28:50.702Z,11.70
2024-04-17T09:31:17.679Z,11.70
2024-04-17T09:33:46.048Z,11.79
2024-04-17T09:36:13.615Z,11.88
2024-04-17T09:38:41.098Z,11.87
2024-04-17T09:41:09.913Z,11.89
2024-04-17T09:43:46.640Z,12.01
2024-04-17T09:46:16.305Z,12.11
2024-04-17T09:48:50.934Z,12.12
2024-04-17T09:51:27.233Z,12.19
2024-04-17T09:54:02.867Z,12.25
2024-04-17T09:56:30.587Z,12.32
2024-04-17T09:59:06.837Z,12.33
2024-04-17T10:01:38.426Z,12.39
2024-04-17T10:04:10.116Z,12.42
2024-04-17T10:06:40.166Z,12.34
2024-04-17T10:09:08.958Z,12.36
2024-04-17T10:11:37.032Z,12.43
2024-04-17T10:14:05.060Z,12.48
2024-04-17T10:16:32.868Z,12.52
2024-04-17T10:19:00.547Z,12.47
2024-04-17T10:21:28.147Z,12.53
2024-04-17T10:24:08.323Z,12.55
2024-04-17T10:26:48.000Z,12.43
2024-04-17T10:29:15.658Z,12.43
2024-04-17T10:31:42.500Z,12.51
2024-04-17T10:34:09.209Z,12.62
2024-04-17T10:36:35.889Z,12.62
2024-04-17T10:39:03.585Z,12.75
2024-04-17T10:41:30.912Z,12.81
2024-04-17T10:43:57.751Z,12.78
2024-04-17T10:46:24.438Z,12.80
2024-04-17T10:48:52.109Z,12.82
2024-04-17T10:51:20.051Z,12.79
2024-04-17T10:53:48.660Z,12.81
2024-04-17T10:56:16.981Z,12.78
2024-04-17T10:58:44.140Z,12.84
2024-04-17T11:01:13.574Z,12.87
2024-04-17T11:03:40.986Z,12.77
2024-04-17T11:06:11.317Z,12.84
2024-04-17T11:08:54.614Z,12.92
2024-04-17T11:11:27.179Z,13.06
2024-04-17T11:13:54.345Z,13.25
2024-04-17T11:16:21.064Z,13.33
2024-04-17T11:18:47.990Z,13.38
2024-04-17T11:21:14.738Z,13.40
2024-04-17T11:23:45.952Z,13.41
2024-04-17T11:26:13.900Z,13.35
2024-04-17T11:28:51.897Z,13.34
2024-04-17T11:31:19.380Z,13.30
2024-04-17T11:33:46.998Z,13.26
2024-04-17T11:36:15.750Z,13.20
2024-04-17T11:38:46.592Z,13.29
2024-04-17T11:41:17.613Z,13.31
2024-04-17T11:43:46.461Z,13.22
2024-04-17T11:46:19.496Z,13.23
2024-04-17T11:48:46.617Z,13.23
2024-04-17T11:51:13.456Z,13.27
2024-04-17T11:53:40.143Z,13.29
2024-04-17T11:56:07.697Z,13.29
2024-04-17T11:58:34.459Z,13.32
2024-04-17T12:01:01.269Z,13.34
2024-04-17T12:05:59.066Z,13.36
2024-04-17T12:08:28.520Z,13.47
2024-04-17T12:10:55.217Z,13.49
2024-04-17T12:13:21.915Z,13.48
2024-04-17T12:15:48.608Z,13.43
2024-04-17T12:18:15.408Z,13.40
2024-04-17T12:20:42.083Z,13.31
2024-04-17T12:23:08.834Z,13.25
2024-04-17T12:25:54.128Z,13.14
2024-04-17T12:28:20.893Z,13.00
2024-04-17T12:30:47.805Z,13.00
2024-04-17T12:33:14.561Z,13.03
2024-04-17T12:35:42.066Z,12.99
2024-04-17T12:38:08.895Z,13.10
2024-04-17T12:40:35.667Z,13.09
2024-04-17T12:43:02.425Z,13.12
2024-04-17T12:45:29.118Z,13.10
2024-04-17T12:47:56.155Z,13.05
2024-04-17T12:50:22.976Z,13.04
2024-04-17T12:52:51.711Z,12.98
2024-04-17T12:55:18.499Z,12.90
2024-04-17T12:57:45.343Z,12.87
2024-04-17T13:00:12.641Z,12.91
2024-04-17T13:02:39.707Z,12.95
2024-04-17T13:05:06.412Z,12.84
2024-04-17T13:07:33.158Z,12.88
2024-04-17T13:09:59.936Z,12.89
2024-04-17T13:12:26.643Z,12.96
2024-04-17T13:14:53.888Z,12.98
2024-04-17T13:17:23.758Z,12.98
2024-04-17T13:19:50.517Z,12.96
2024-04-17T13:22:17.207Z,12.91
2024-04-17T13:24:44.047Z,12.73
2024-04-17T13:27:12.090Z,12.82
2024-04-17T13:29:38.743Z,12.76
2024-04-17T13:32:05.902Z,12.75
2024-04-17T13:34:32.818Z,12.79
2024-04-17T13:36:59.587Z,12.76
2024-04-17T13:39:26.292Z,12.75
2024-04-17T13:41:52.966Z,12.76
2024-04-17T13:44:21.911Z,12.73
2024-04-17T13:46:48.737Z,12.72
2024-04-17T13:49:15.474Z,12.69
2024-04-17T13:51:42.442Z,12.63
2024-04-17T13:54:09.095Z,12.70
2024-04-17T13:59:18.208Z,12.62
2024-04-17T14:01:44.954Z,12.64
2024-04-17T14:04:11.643Z,12.69
2024-04-17T14:06:38.470Z,12.67
2024-04-17T14:09:05.380Z,12.63
2024-04-17T14:11:32.361Z,12.65
2024-04-17T14:14:01.637Z,12.67
2024-04-17T14:16:29.430Z,12.68
2024-04-17T14:18:56.223Z,12.68
2024-04-17T14:21:23.441Z,12.72
2024-04-17T14:23:50.185Z,12.78
2024-04-17T14:26:22.184Z,12.73
2024-04-17T14:28:48.999Z,12.68
2024-04-17T14:31:15.835Z,12.82
2024-04-17T14:33:42.712Z,12.80
2024-04-17T14:36:09.823Z,12.95
2024-04-17T14:38:40.393Z,12.99
2024-04-17T14:41:09.055Z,12.93
2024-04-17T14:43:36.919Z,12.93
2024-04-17T14:46:05.043Z,12.94
2024-04-17T14:48:33.628Z,12.78
2024-04-17T14:51:02.553Z,12.76
2024-04-17T14:53:30.510Z,12.63
2024-04-17T14:56:05.031Z,12.62
2024-04-17T14:58:32.296Z,12.69
2024-04-17T15:01:00.099Z,12.70
2024-04-17T15:03:29.017Z,12.78
2024-04-17T15:06:07.455Z,12.83
2024-04-17T15:08:35.378Z,12.85
2024-04-17T15:11:10.193Z,12.78
2024-04-17T15:13:39.128Z,12.77
2024-04-17T15:16:06.934Z,12.80
2024-04-17T15:18:34.633Z,12.83
2024-04-17T15:21:07.324Z,12.82
2024-04-17T15:23:34.313Z,12.82
2024-04-17T15:26:11.479Z,12.71
2024-04-17T15:28:40.196Z,12.68
2024-04-17T15:33:58.255Z,12.54
2024-04-17T15:36:27.272Z,12.49
2024-04-17T15:38:54.280Z,12.46
2024-04-17T15:41:21.614Z,12.39
2024-04-17T15:43:48.742Z,12.39
2024-04-17T15:46:16.226Z,12.46
2024-04-17T15:48:44.266Z,12.47
2024-04-17T15:51:13.336Z,12.43
2024-04-17T15:53:44.666Z,12.41
2024-04-17T15:56:21.575Z,12.37
2024-04-17T15:58:49.844Z,12.35
2024-04-17T16:01:18.438Z,12.24
2024-04-17T16:03:50.720Z,12.28
2024-04-17T16:06:20.924Z,12.28
2024-04-17T16:08:48.747Z,12.12
2024-04-17T16:11:15.855Z,12.14
2024-04-17T16:13:43.800Z,12.15
2024-04-17T16:16:11.502Z,12.12
2024-04-17T16:18:39.999Z,12.04
2024-04-17T16:21:15.730Z,12.08
2024-04-17T16:23:43.208Z,12.04
2024-04-17T16:26:16.819Z,11.94
2024-04-17T16:28:50.137Z,11.95
2024-04-17T16:31:21.409Z,11.78
2024-04-17T16:33:52.541Z,11.86
2024-04-17T16:36:19.736Z,11.84
2024-04-17T16:38:47.184Z,11.93
2024-04-17T16:41:15.266Z,11.93
2024-04-17T16:43:42.307Z,11.89
2024-04-17T16:46:10.610Z,11.89
2024-04-17T16:48:40.008Z,11.97
2024-04-17T16:51:10.021Z,11.82
2024-04-17T16:53:39.152Z,11.74
2024-04-17T16:56:07.289Z,11.70
2024-04-17T16:58:39.897Z,11.59
2024-04-17T17:01:08.828Z,11.65
2024-04-17T17:03:36.577Z,11.64
2024-04-17T17:06:04.743Z,11.69
2024-04-17T17:08:31.862Z,11.72
2024-04-17T17:10:59.866Z,11.74
2024-04-17T17:13:29.919Z,11.74
2024-04-17T17:16:04.588Z,11.75
2024-04-17T17:18:32.842Z,11.73
2024-04-17T17:21:03.168Z,11.69
2024-04-17T17:23:30.728Z,11.63
2024-04-17T17:26:00.692Z,11.55
2024-04-17T17:28:27.868Z,11.49
2024-04-17T17:30:59.244Z,11.46
2024-04-17T17:33:29.838Z,11.40
2024-04-17T17:36:15.687Z,11.48
2024-04-17T17:38:44.051Z,11.46
2024-04-17T17:41:14.305Z,11.46
2024-04-17T17:43:44.174Z,11.47
2024-04-17T17:46:19.113Z,11.51
2024-04-17T17:48:48.854Z,11.44
2024-04-17T17:51:19.581Z,11.49
2024-04-17T17:53:46.922Z,11.53
2024-04-17T17:56:15.999Z,11.53
2024-04-17T17:58:48.550Z,11.58
2024-04-17T18:01:21.048Z,11.65
2024-04-17T18:03:51.256Z,11.70
2024-04-17T18:06:20.568Z,11.72
2024-04-17T18:08:47.558Z,11.73
2024-04-17T18:11:21.607Z,11.76
2024-04-17T18:13:49.028Z,11.77
2024-04-17T18:16:25.627Z,11.81
2024-04-17T18:19:00.422Z,11.82
2024-04-17T18:21:27.662Z,11.84
2024-04-17T18:23:54.460Z,11.86
2024-04-17T18:26:25.728Z,11.86
2024-04-17T18:28:54.741Z,11.89
2024-04-17T18:31:22.536Z,11.90
2024-04-17T18:33:52.944Z,11.83
2024-04-17T18:36:23.949Z,11.74
2024-04-17T18:38:52.373Z,11.75
2024-04-17T18:41:24.680Z,11.73
2024-04-17T18:44:05.533Z,11.71
2024-04-17T18:46:34.102Z,11.70
2024-04-17T18:49:01.777Z,11.66
2024-04-17T18:51:29.484Z,11.66
2024-04-17T18:53:56.242Z,11.68
2024-04-17T18:56:25.738Z,11.70
2024-04-17T18:58:52.547Z,11.71
2024-04-17T19:01:20.962Z,11.71
2024-04-17T19:03:48.761Z,11.71
2024-04-17T19:06:17.979Z,11.68
2024-04-17T19:08:44.979Z,11.61
2024-04-17T19:11:15.018Z,11.56
2024-04-17T19:13:42.538Z,11.50
2024-04-17T19:16:19.384Z,11.41
2024-04-17T19:18:48.967Z,11.37
2024-04-17T19:21:16.645Z,11.32
2024-04-17T19:23:44.487Z,11.25
2024-04-17T19:26:11.999Z,11.18
2024-04-17T19:28:38.666Z,11.12
2024-04-17T19:31:07.694Z,11.13
2024-04-17T19:33:41.740Z,10.93
2024-04-17T19:36:12.081Z,10.84
2024-04-17T19:38:44.313Z,10.73
2024-04-17T19:41:15.494Z,10.75
2024-04-17T19:43:42.682Z,10.64
2024-04-17T19:46:09.901Z,10.64
2024-04-17T19:48:38.569Z,10.56
2024-04-17T19:51:06.033Z,10.58
2024-04-17T19:53:33.222Z,10.50
2024-04-17T19:56:00.278Z,10.42
2024-04-17T19:58:27.134Z,10.32
2024-04-17T20:00:56.948Z,10.23
2024-04-17T20:03:23.947Z,10.33
2024-04-17T20:05:55.344Z,10.38
2024-04-17T20:08:22.703Z,10.45
2024-04-17T20:10:49.801Z,10.51
2024-04-17T20:13:18.820Z,10.54
2024-04-17T20:15:46.769Z,10.61
2024-04-17T20:18:16.649Z,10.59
2024-04-17T20:20:53.263Z,10.53
2024-04-17T20:23:20.250Z,10.58
2024-04-17T20:25:46.928Z,10.50
2024-04-17T20:28:14.764Z,10.49
2024-04-17T20:30:41.829Z,10.38
2024-04-17T20:33:09.548Z,10.29
2024-04-17T20:35:36.348Z,10.23
2024-04-17T20:38:03.005Z,10.24
2024-04-17T20:40:29.893Z,10.22
2024-04-17T20:42:56.612Z,10.17
2024-04-17T20:45:26.531Z,10.23
2024-04-17T20:47:53.336Z,10.28
2024-04-17T20:50:20.077Z,10.30
2024-04-17T20:52:46.740Z,10.30
2024-04-17T20:55:15.166Z,10.35
2024-04-17T20:57:41.903Z,10.37
2024-04-17T21:00:10.534Z,10.41
2024-04-17T21:02:39.470Z,10.41
2024-04-17T21:05:06.670Z,10.45
2024-04-17T21:07:34.123Z,10.40
2024-04-17T21:10:00.916Z,10.34
2024-04-17T21:12:27.705Z,10.33
2024-04-17T21:14:54.390Z,10.31
2024-04-17T21:17:21.117Z,10.31
2024-04-17T21:19:47.780Z,10.32
2024-04-17T21:22:14.451Z,10.30
2024-04-17T21:24:41.187Z,10.29
2024-04-17T21:27:07.956Z,10.29
2024-04-17T21:29:34.700Z,10.29
2024-04-17T21:32:05.923Z,10.23
2024-04-17T21:34:33.258Z,10.20
2024-04-17T21:37:03.334Z,10.02
2024-04-17T21:39:30.532Z,9.87
2024-04-17T21:41:57.552Z,9.72
2024-04-17T21:44:24.214Z,9.72
2024-04-17T21:46:53.960Z,9.58
2024-04-17T21:49:20.747Z,9.48
2024-04-17T21:51:47.559Z,9.46
2024-04-17T21:54:14.309Z,9.37
2024-04-17T21:56:43.724Z,9.34
2024-04-17T21:59:11.837Z,9.37
2024-04-17T22:01:38.531Z,9.34
2024-04-17T22:04:05.378Z,9.29
2024-04-17T22:06:32.098Z,9.31
2024-04-17T22:08:58.761Z,9.26
2024-04-17T22:11:25.503Z,9.25
2024-04-17T22:13:52.202Z,9.10
2024-04-17T22:16:18.884Z,9.09
2024-04-17T22:18:45.623Z,9.16
2024-04-17T22:21:12.362Z,9.04
2024-04-17T22:23:39.055Z,8.88
2024-04-17T22:26:05.839Z,8.90
2024-04-17T22:28:32.524Z,8.86
2024-04-17T22:30:59.198Z,8.89
2024-04-17T22:33:25.953Z,8.91
2024-04-17T22:35:52.648Z,8.87
2024-04-17T22:38:19.329Z,8.92
2024-04-17T22:40:45.994Z,8.93
2024-04-17T22:43:12.679Z,8.97
2024-04-17T22:45:39.387Z,9.02
2024-04-17T22:48:06.477Z,9.03
2024-04-17T22:50:33.143Z,9.04
2024-04-17T22:52:59.821Z,9.04
2024-04-17T22:55:26.472Z,9.06
2024-04-17T22:57:53.206Z,9.06
2024-04-17T23:00:21.413Z,8.99
2024-04-17T23:02:48.154Z,8.80
2024-04-17T23:05:15.437Z,8.79
2024-04-17T23:07:42.008Z,8.83
2024-04-17T23:10:08.618Z,8.73
2024-04-17T23:12:35.284Z,8.53
2024-04-17T23:15:02.110Z,8.21
2024-04-17T23:17:28.880Z,8.16
2024-04-17T23:19:55.530Z,7.85
2024-04-17T23:22:22.240Z,7.80
2024-04-17T23:24:48.917Z,7.71
2024-04-17T23:27:15.602Z,7.55
2024-04-17T23:29:42.406Z,7.17
2024-04-17T23:32:09.240Z,7.20
2024-04-17T23:34:35.945Z,7.25
2024-04-17T23:37:02.645Z,7.27
2024-04-17T23:39:29.616Z,7.29
2024-04-17T23:41:56.370Z,7.48
2024-04-17T23:44:24.667Z,7.53
2024-04-17T23:46:51.437Z,7.62
2024-04-17T23:49:21.136Z,7.77
2024-04-17T23:51:47.945Z,7.89
2024-04-17T23:54:14.694Z,8.01
2024-04-17T23:56:41.404Z,7.92
2024-04-17T23:59:08.082Z,8.00
